createdAt,value
2022-10-21T00:03:49.072Z,6.53
2022-10-21T00:08:50.346Z,6.68
2022-10-21T00:13:51.685Z,6.07
2022-10-21T00:18:52.935Z,7.53
2022-10-21T00:23:54.522Z,6.50
2022-10-21T00:28:56.764Z,7.00
2022-10-21T00:33:57.991Z,5.95
2022-10-21T00:38:59.244Z,5.97
2022-10-21T00:44:04.925Z,6.00
2022-10-21T00:49:08.130Z,6.20
2022-10-21T00:54:09.700Z,5.88
2022-10-21T00:59:11.314Z,6.60
2022-10-21T01:04:12.574Z,5.82
2022-10-21T01:09:14.762Z,5.95
2022-10-21T01:14:28.438Z,6.37
2022-10-21T01:19:45.101Z,6.10
2022-10-21T01:24:46.339Z,6.93
2022-10-21T01:30:06.046Z,6.55
2022-10-21T01:35:22.431Z,6.23
2022-10-21T01:40:41.834Z,6.20
2022-10-21T01:45:46.649Z,5.57
2022-10-21T01:50:51.765Z,5.90
2022-10-21T01:55:53.553Z,6.40
2022-10-21T02:00:56.367Z,6.37
2022-10-21T02:05:57.937Z,6.10
2022-10-21T02:11:02.125Z,6.13
2022-10-21T02:16:06.212Z,5.72
2022-10-21T02:21:13.192Z,5.83
2022-10-21T02:26:14.481Z,5.88
2022-10-21T02:31:24.552Z,4.90
2022-10-21T02:36:25.859Z,5.83
2022-10-21T02:41:28.275Z,5.32
2022-10-21T02:46:56.005Z,5.88
2022-10-21T02:51:57.286Z,5.60
2022-10-21T02:56:58.500Z,5.18
2022-10-21T03:01:59.754Z,5.28
2022-10-21T03:07:00.985Z,5.20
2022-10-21T03:12:02.252Z,5.30
2022-10-21T03:17:03.492Z,4.72
2022-10-21T03:22:04.748Z,4.57
2022-10-21T03:27:05.992Z,4.57
2022-10-21T03:32:07.219Z,5.40
2022-10-21T03:37:08.508Z,4.55
2022-10-21T03:42:09.741Z,4.83
2022-10-21T03:47:10.956Z,4.65
2022-10-21T03:52:12.251Z,5.47
2022-10-21T03:57:13.481Z,6.50
2022-10-21T04:02:14.721Z,5.20
2022-10-21T04:07:15.969Z,5.35
2022-10-21T04:12:17.217Z,5.60
2022-10-21T04:17:18.442Z,4.70
2022-10-21T04:22:19.675Z,4.82
2022-10-21T04:27:20.888Z,4.27
2022-10-21T04:32:22.125Z,4.40
2022-10-21T04:37:23.341Z,3.95
2022-10-21T04:42:24.631Z,4.37
2022-10-21T04:47:25.972Z,4.07
2022-10-21T04:52:27.204Z,4.05
2022-10-21T04:57:28.428Z,3.97
2022-10-21T05:02:29.692Z,4.40
2022-10-21T05:07:30.926Z,4.40
2022-10-21T05:12:32.190Z,4.43
2022-10-21T05:17:33.471Z,4.07
2022-10-21T05:22:34.712Z,3.97
2022-10-21T05:27:36.230Z,4.05
2022-10-21T05:32:38.649Z,5.47
2022-10-21T05:37:40.214Z,4.20
2022-10-21T05:42:41.555Z,4.15
2022-10-21T05:47:42.988Z,4.67
2022-10-21T05:52:44.238Z,5.03
2022-10-21T05:57:45.562Z,4.38
2022-10-21T06:02:46.864Z,4.88
2022-10-21T06:07:48.270Z,6.07
2022-10-21T06:12:49.525Z,6.13
2022-10-21T06:17:51.471Z,6.28
2022-10-21T06:22:52.737Z,7.70
2022-10-21T06:27:54.000Z,8.70
2022-10-21T06:32:55.279Z,7.70
2022-10-21T06:37:56.504Z,7.67
2022-10-21T06:42:57.745Z,6.70
2022-10-21T06:47:58.991Z,6.32
2022-10-21T06:53:00.307Z,4.50
2022-10-21T06:58:02.111Z,4.90
2022-10-21T07:03:03.341Z,4.70
2022-10-21T07:08:04.977Z,4.43
2022-10-21T07:13:07.206Z,5.70
2022-10-21T07:18:08.445Z,6.30
2022-10-21T07:23:09.694Z,7.03
2022-10-21T07:28:10.961Z,5.10
2022-10-21T07:33:12.557Z,5.82
2022-10-21T07:38:13.844Z,5.63
2022-10-21T07:48:23.348Z,5.25
2022-10-21T07:53:26.281Z,5.47
2022-10-21T07:58:27.526Z,6.60
2022-10-21T08:03:28.829Z,4.83
2022-10-21T08:08:30.860Z,5.07
2022-10-21T08:13:32.254Z,5.00
2022-10-21T08:18:33.508Z,5.80
2022-10-21T08:23:35.383Z,6.95
2022-10-21T08:28:36.596Z,5.30
2022-10-21T08:33:38.010Z,5.23
2022-10-21T08:38:39.458Z,5.13
2022-10-21T08:43:42.881Z,4.88
2022-10-21T08:48:58.636Z,4.97
2022-10-21T08:54:03.339Z,5.38
2022-10-21T08:59:10.265Z,5.63
2022-10-21T09:04:23.225Z,4.40
2022-10-21T09:09:24.496Z,4.20
2022-10-21T09:14:38.181Z,4.70
2022-10-21T09:19:54.586Z,4.20
2022-10-21T09:25:02.961Z,3.83
2022-10-21T09:30:06.709Z,3.88
2022-10-21T09:35:17.871Z,3.00
2022-10-21T09:40:19.406Z,2.97
2022-10-21T09:45:20.709Z,3.45
2022-10-21T09:50:22.020Z,2.88
2022-10-21T09:55:24.032Z,2.50
2022-10-21T10:00:40.987Z,2.10
2022-10-21T10:05:44.467Z,1.75
2022-10-21T10:10:45.755Z,1.65
2022-10-21T10:15:47.030Z,1.20
2022-10-21T10:21:04.639Z,1.73
2022-10-21T10:26:05.920Z,1.23
2022-10-21T10:31:07.201Z,1.10
2022-10-21T10:36:09.684Z,0.82
2022-10-21T10:41:12.149Z,1.05
2022-10-21T10:46:39.898Z,1.20
2022-10-21T10:51:42.475Z,1.30
2022-10-21T10:56:57.202Z,0.77
2022-10-21T11:02:07.463Z,1.00
2022-10-21T11:07:15.744Z,1.10
2022-10-21T11:12:20.433Z,1.20
2022-10-21T11:17:22.713Z,1.17
2022-10-21T11:22:31.126Z,1.40
2022-10-21T11:27:47.260Z,1.30
2022-10-21T11:33:02.558Z,1.08
2022-10-21T11:38:03.814Z,3.57
2022-10-21T11:43:25.310Z,6.10
2022-10-21T11:48:33.423Z,2.08
2022-10-21T11:53:44.062Z,5.68
2022-10-21T11:59:08.384Z,1.70
2022-10-21T12:04:09.604Z,1.58
2022-10-21T12:09:29.784Z,1.80
2022-10-21T12:14:50.040Z,2.67
2022-10-21T12:19:59.441Z,2.95
2022-10-21T12:25:12.948Z,2.50
2022-10-21T12:30:23.316Z,1.70
2022-10-21T12:35:28.773Z,1.27
2022-10-21T12:40:30.329Z,3.80
2022-10-21T12:45:38.630Z,1.88
2022-10-21T12:50:41.131Z,3.40
2022-10-21T12:55:48.471Z,1.50
2022-10-21T13:00:55.257Z,1.27
2022-10-21T13:06:02.140Z,4.90
2022-10-21T13:11:06.103Z,3.10
2022-10-21T13:16:19.693Z,1.40
2022-10-21T13:21:40.483Z,1.60
2022-10-21T13:26:46.698Z,2.90
2022-10-21T13:31:48.022Z,1.30
2022-10-21T13:36:52.690Z,1.45
2022-10-21T13:41:58.648Z,1.40
2022-10-21T13:47:17.760Z,1.50
2022-10-21T13:52:19.097Z,1.67
2022-10-21T13:57:20.353Z,1.70
2022-10-21T14:02:23.557Z,1.13
2022-10-21T14:07:26.021Z,2.60
2022-10-21T14:12:34.505Z,1.40
2022-10-21T14:17:38.941Z,1.80
2022-10-21T14:22:40.988Z,1.60
2022-10-21T14:27:46.746Z,1.55
2022-10-21T14:32:48.543Z,1.10
2022-10-21T14:37:50.918Z,1.55
2022-10-21T14:42:53.836Z,1.60
2022-10-21T14:48:00.424Z,1.43
2022-10-21T14:53:01.945Z,1.52
2022-10-21T14:58:04.893Z,1.70
2022-10-21T15:03:06.373Z,1.73
2022-10-21T15:08:33.827Z,1.50
2022-10-21T15:13:35.147Z,1.45
2022-10-21T15:18:43.840Z,1.73
2022-10-21T15:23:52.920Z,1.70
2022-10-21T15:28:54.325Z,3.20
2022-10-21T15:33:56.737Z,5.07
2022-10-21T15:38:57.981Z,4.40
2022-10-21T15:44:00.510Z,3.55
2022-10-21T15:49:12.350Z,3.70
2022-10-21T15:54:14.119Z,2.37
2022-10-21T15:59:25.577Z,3.20
2022-10-21T16:04:27.004Z,3.90
2022-10-21T16:09:29.030Z,1.90
2022-10-21T16:14:31.111Z,1.40
2022-10-21T16:19:32.562Z,7.97
2022-10-21T16:24:33.798Z,6.13
2022-10-21T16:29:35.046Z,5.30
2022-10-21T16:34:36.313Z,5.38
2022-10-21T16:39:37.557Z,17.17
2022-10-21T16:44:38.814Z,4.63
2022-10-21T16:49:40.073Z,2.10
2022-10-21T16:54:42.588Z,3.50
2022-10-21T16:59:44.680Z,2.53
2022-10-21T17:04:47.121Z,3.47
2022-10-21T17:09:48.506Z,3.20
2022-10-21T17:14:49.738Z,3.45
2022-10-21T17:19:51.199Z,2.97
2022-10-21T17:24:52.473Z,4.60
2022-10-21T17:29:53.702Z,4.32
2022-10-21T17:34:54.950Z,3.63
2022-10-21T17:39:56.229Z,3.97
2022-10-21T17:44:58.199Z,4.35
2022-10-21T17:49:59.451Z,3.90
2022-10-21T17:55:00.706Z,4.30
2022-10-21T18:05:09.141Z,3.63
2022-10-21T18:10:10.446Z,5.30
2022-10-21T18:15:11.730Z,5.07
2022-10-21T18:20:13.773Z,7.95
2022-10-21T18:25:15.478Z,5.30
2022-10-21T18:30:16.819Z,4.53
2022-10-21T18:35:18.233Z,3.97
2022-10-21T18:40:19.501Z,5.60
2022-10-21T18:45:20.835Z,6.28
2022-10-21T18:50:22.089Z,5.13
2022-10-21T18:55:23.673Z,5.83
2022-10-21T19:00:25.020Z,5.85
2022-10-21T19:05:26.331Z,5.75
2022-10-21T19:10:27.615Z,5.30
2022-10-21T19:15:28.853Z,5.53
2022-10-21T19:20:30.588Z,6.50
2022-10-21T19:25:32.647Z,7.20
2022-10-21T19:30:34.448Z,5.00
2022-10-21T19:35:36.318Z,4.45
2022-10-21T19:40:37.595Z,5.47
2022-10-21T19:45:38.862Z,4.93
2022-10-21T19:50:44.316Z,5.35
2022-10-21T19:55:45.600Z,6.33
2022-10-21T20:00:47.023Z,4.80
2022-10-21T20:05:48.239Z,4.22
2022-10-21T20:10:59.662Z,5.63
2022-10-21T20:16:00.931Z,6.32
2022-10-21T20:21:06.165Z,6.50
2022-10-21T20:26:07.697Z,6.80
2022-10-21T20:31:10.535Z,6.05
2022-10-21T20:36:18.920Z,6.10
2022-10-21T20:41:33.515Z,5.90
2022-10-21T20:46:35.969Z,6.38
2022-10-21T20:51:38.210Z,4.43
2022-10-21T20:56:41.094Z,5.90
2022-10-21T21:01:43.712Z,5.70
2022-10-21T21:06:46.819Z,4.93
2022-10-21T21:11:48.174Z,4.43
2022-10-21T21:16:49.571Z,4.60
2022-10-21T21:21:50.914Z,4.47
2022-10-21T21:26:52.328Z,4.50
2022-10-21T21:31:53.598Z,4.55
2022-10-21T21:36:54.854Z,3.77
2022-10-21T21:41:56.144Z,3.60
2022-10-21T21:46:57.384Z,3.05
2022-10-21T21:51:58.646Z,2.80
2022-10-21T21:57:26.338Z,2.50
2022-10-21T22:02:21.247Z,2.00
2022-10-21T22:07:22.496Z,1.80
2022-10-21T22:12:23.753Z,1.30
2022-10-21T22:17:25.030Z,1.25
2022-10-21T22:22:26.294Z,1.23
2022-10-21T22:27:27.571Z,1.00
2022-10-21T22:32:28.815Z,1.00
2022-10-21T22:37:30.036Z,1.10
2022-10-21T22:42:31.301Z,1.60
2022-10-21T22:47:32.642Z,1.63
2022-10-21T22:52:33.863Z,2.00
2022-10-21T22:57:35.136Z,2.60
2022-10-21T23:02:36.516Z,2.60
2022-10-21T23:07:37.758Z,1.50
2022-10-21T23:12:39.346Z,1.20
2022-10-21T23:17:40.816Z,0.90
2022-10-21T23:22:42.584Z,0.90
2022-10-21T23:27:43.949Z,1.07
2022-10-21T23:32:45.500Z,1.75
2022-10-21T23:37:46.818Z,2.00
2022-10-21T23:42:48.096Z,0.90
2022-10-21T23:47:49.364Z,0.90
2022-10-21T23:52:50.646Z,0.80
2022-10-21T23:57:51.948Z,0.97
